Time;durP1;ratioP1;P1;durP2;ratioP2;P2;SDS_P1;SDS_P2;PMS_P1;PMS_P2;Temp;Humidity;BMP_temperature;BMP_pressure;BME280_temperature;BME280_humidity;BME280_pressure;Samples;Min_cycle;Max_cycle;Signal;HPM_P1;HPM_P2
2023/12/29 00:00:26;;;;;;;34.55;18.98;;;3.00;99.90;;;;;;5056906;28;20028;-77
2023/12/29 00:02:52;;;;;;;33.03;19.58;;;3.00;99.90;;;;;;5056844;28;20406;-75
2023/12/29 00:05:18;;;;;;;29.83;16.67;;;3.00;99.90;;;;;;5060392;28;20025;-77
2023/12/29 00:07:43;;;;;;;26.60;15.82;;;3.00;99.90;;;;;;5074620;28;20099;-78
2023/12/29 00:10:09;;;;;;;31.25;16.35;;;3.10;99.90;;;;;;5074745;28;20017;-76
2023/12/29 00:12:35;;;;;;;24.98;14.70;;;3.10;99.90;;;;;;5056791;28;20067;-76
2023/12/29 00:15:00;;;;;;;32.25;15.10;;;3.30;99.90;;;;;;5074590;28;20066;-77
2023/12/29 00:17:26;;;;;;;27.00;15.55;;;3.40;99.90;;;;;;5074831;28;20027;-77
2023/12/29 00:19:53;;;;;;;25.50;13.25;;;3.50;99.90;;;;;;5056454;28;20013;-76
2023/12/29 00:22:19;;;;;;;25.73;13.25;;;3.60;99.90;;;;;;5056410;28;20102;-76
2023/12/29 00:24:44;;;;;;;21.70;14.07;;;3.70;99.90;;;;;;5073984;28;20020;-77
2023/12/29 00:27:10;;;;;;;24.83;12.40;;;3.90;99.90;;;;;;5074435;28;20064;-76
2023/12/29 00:29:36;;;;;;;24.60;12.93;;;4.10;99.90;;;;;;5074328;28;20027;-76
2023/12/29 00:32:02;;;;;;;21.95;12.25;;;4.20;99.90;;;;;;5056214;28;20402;-77
2023/12/29 00:34:28;;;;;;;21.08;12.68;;;4.40;99.90;;;;;;5056197;28;20033;-77
2023/12/29 00:36:53;;;;;;;20.65;11.90;;;4.50;99.90;;;;;;5055796;28;20028;-78
2023/12/29 00:39:26;;;;;;;19.05;11.65;;;4.70;99.90;;;;;;5056038;28;20040;-76
2023/12/29 00:41:51;;;;;;;22.38;12.57;;;4.80;99.90;;;;;;5055734;28;20505;-78
2023/12/29 00:44:17;;;;;;;18.70;11.07;;;4.90;99.90;;;;;;5074219;28;20048;-76
2023/12/29 00:46:42;;;;;;;20.50;12.32;;;5.00;99.90;;;;;;5073928;28;20089;-77
2023/12/29 00:49:08;;;;;;;16.58;10.35;;;5.10;99.90;;;;;;5074075;28;20419;-76
2023/12/29 00:51:40;;;;;;;15.13;10.38;;;5.20;99.90;;;;;;5073868;28;20458;-77
2023/12/29 00:54:06;;;;;;;19.15;11.07;;;5.20;99.90;;;;;;5061988;28;20020;-77
2023/12/29 00:56:32;;;;;;;16.58;10.63;;;5.30;99.90;;;;;;5073652;28;20040;-76
2023/12/29 00:58:58;;;;;;;21.63;11.05;;;5.30;99.90;;;;;;5055879;28;20012;-76
2023/12/29 01:01:23;;;;;;;17.30;10.45;;;5.30;99.90;;;;;;5073459;28;20028;-77
2023/12/29 01:03:49;;;;;;;18.90;10.23;;;5.40;99.90;;;;;;5055724;28;20016;-77
2023/12/29 01:06:14;;;;;;;18.33;10.43;;;5.40;99.90;;;;;;5073562;28;20028;-78
2023/12/29 01:08:40;;;;;;;17.38;10.20;;;5.40;99.90;;;;;;5055257;28;20099;-78
2023/12/29 01:11:06;;;;;;;17.90;10.57;;;5.40;99.90;;;;;;5055276;28;20020;-77
2023/12/29 01:13:32;;;;;;;17.02;11.43;;;5.40;99.90;;;;;;5055404;28;20028;-77
2023/12/29 01:15:57;;;;;;;16.52;10.15;;;5.40;99.90;;;;;;5073424;28;20478;-78
2023/12/29 01:18:23;;;;;;;21.27;11.50;;;5.40;99.90;;;;;;5073299;28;20044;-78
2023/12/29 01:20:48;;;;;;;19.02;11.30;;;5.50;99.90;;;;;;5073311;28;20092;-77
2023/12/29 01:23:14;;;;;;;21.60;11.40;;;5.50;99.90;;;;;;5055463;28;20484;-76
2023/12/29 01:25:40;;;;;;;19.60;10.95;;;5.50;99.90;;;;;;5055445;28;20017;-78
2023/12/29 01:28:05;;;;;;;18.63;11.20;;;5.50;99.90;;;;;;5072433;28;20009;-75
2023/12/29 01:30:31;;;;;;;17.15;11.52;;;5.50;99.90;;;;;;5055069;28;20021;-75
2023/12/29 01:32:57;;;;;;;18.15;10.77;;;5.50;99.90;;;;;;5072991;28;20041;-78
2023/12/29 01:35:22;;;;;;;16.23;9.93;;;5.50;99.90;;;;;;5072957;28;20021;-78
2023/12/29 01:37:48;;;;;;;16.55;9.88;;;5.50;99.90;;;;;;5055299;28;20142;-78
2023/12/29 01:40:14;;;;;;;17.95;11.45;;;5.50;99.90;;;;;;5072942;28;20017;-78
2023/12/29 01:42:40;;;;;;;19.20;11.07;;;5.50;99.90;;;;;;5073155;28;20490;-77
2023/12/29 01:45:24;;;;;;;16.35;10.77;;;5.50;99.90;;;;;;5072765;28;20017;-76
2023/12/29 01:47:50;;;;;;;15.48;10.13;;;5.50;99.90;;;;;;5072962;28;20063;-76
2023/12/29 01:50:21;;;;;;;16.90;11.18;;;5.40;99.90;;;;;;5072587;28;20078;-77
2023/12/29 01:52:49;;;;;;;19.90;11.80;;;5.40;99.90;;;;;;5072919;28;20493;-77
2023/12/29 01:55:23;;;;;;;18.38;11.65;;;5.30;99.90;;;;;;5072470;28;20024;-76
2023/12/29 01:57:49;;;;;;;16.88;10.55;;;5.30;99.90;;;;;;5054781;28;20028;-78
2023/12/29 02:00:17;;;;;;;19.00;10.90;;;5.20;99.90;;;;;;5054633;28;20116;-78
2023/12/29 02:02:43;;;;;;;15.80;10.48;;;5.20;99.90;;;;;;5054108;28;20044;-78
2023/12/29 02:05:13;;;;;;;13.75;9.57;;;5.20;99.90;;;;;;5072603;28;20019;-77
2023/12/29 02:07:41;;;;;;;17.33;10.57;;;5.10;99.90;;;;;;5072023;28;20024;-75
2023/12/29 02:10:07;;;;;;;14.68;9.40;;;5.10;99.90;;;;;;5054388;28;20016;-76
2023/12/29 02:12:36;;;;;;;14.00;9.80;;;5.10;99.90;;;;;;5054642;28;20115;-76
2023/12/29 02:15:03;;;;;;;18.73;10.82;;;5.00;99.90;;;;;;5070661;28;20032;-75
2023/12/29 02:17:39;;;;;;;17.13;9.65;;;4.90;99.90;;;;;;5070903;28;20033;-75
2023/12/29 02:20:07;;;;;;;17.48;10.32;;;4.90;99.90;;;;;;5054370;28;20028;-76
2023/12/29 02:22:32;;;;;;;14.75;10.02;;;4.90;99.90;;;;;;5054242;28;20044;-76
2023/12/29 02:24:58;;;;;;;15.75;10.10;;;4.80;99.90;;;;;;5072533;28;20026;-75
2023/12/29 02:27:45;;;;;;;15.68;10.40;;;4.80;99.90;;;;;;5072176;28;20652;-75
2023/12/29 02:30:37;;;;;;;15.90;10.45;;;4.70;99.90;;;;;;5053912;28;20496;-75
2023/12/29 02:33:07;;;;;;;18.38;10.18;;;4.70;99.90;;;;;;5073253;28;20044;-75
2023/12/29 02:35:36;;;;;;;19.40;10.55;;;4.70;99.90;;;;;;5072200;28;20053;-75
2023/12/29 02:38:02;;;;;;;15.27;9.38;;;4.60;99.90;;;;;;5072258;28;20492;-77
2023/12/29 02:40:28;;;;;;;15.43;10.02;;;4.60;99.90;;;;;;5074276;28;20069;-77
2023/12/29 02:42:54;;;;;;;15.23;10.10;;;4.50;99.90;;;;;;5057879;28;20044;-78
2023/12/29 02:45:20;;;;;;;15.57;9.70;;;4.50;99.90;;;;;;5075190;28;20497;-76
2023/12/29 02:47:46;;;;;;;16.10;9.48;;;4.50;99.90;;;;;;5063190;28;20020;-76
2023/12/29 02:50:12;;;;;;;17.45;10.18;;;4.40;99.90;;;;;;5065237;28;20024;-76
2023/12/29 02:52:38;;;;;;;20.42;12.30;;;4.30;99.90;;;;;;5058068;28;20016;-78
2023/12/29 02:55:04;;;;;;;16.80;9.93;;;4.30;99.90;;;;;;5076293;28;20033;-78
2023/12/29 02:57:30;;;;;;;15.32;10.15;;;4.30;99.90;;;;;;5074000;28;20028;-78
2023/12/29 02:59:56;;;;;;;18.20;11.95;;;4.30;99.90;;;;;;5075566;28;20035;-78
2023/12/29 03:02:22;;;;;;;16.63;10.07;;;4.30;99.90;;;;;;5074611;28;20052;-77
2023/12/29 03:04:48;;;;;;;17.45;10.30;;;4.30;99.90;;;;;;5058008;28;20031;-76
2023/12/29 03:07:13;;;;;;;16.88;9.30;;;4.30;99.90;;;;;;5057620;28;20024;-76
2023/12/29 03:09:39;;;;;;;17.63;10.50;;;4.40;99.90;;;;;;5075657;28;20029;-76
2023/12/29 03:12:05;;;;;;;17.35;10.85;;;4.30;99.90;;;;;;5057180;28;20100;-76
2023/12/29 03:14:31;;;;;;;14.40;9.20;;;4.40;99.90;;;;;;5057882;28;20052;-76
2023/12/29 03:16:57;;;;;;;15.10;10.25;;;4.40;99.90;;;;;;5057299;28;20056;-76
2023/12/29 03:19:23;;;;;;;14.35;9.43;;;4.40;99.90;;;;;;5075305;28;20035;-76
2023/12/29 03:21:49;;;;;;;16.10;10.13;;;4.40;99.90;;;;;;5078360;28;20107;-77
2023/12/29 03:24:14;;;;;;;16.30;10.13;;;4.30;99.90;;;;;;5083587;28;20052;-77
2023/12/29 03:26:40;;;;;;;16.92;10.38;;;4.30;99.90;;;;;;5069507;28;20107;-76
2023/12/29 03:29:06;;;;;;;15.80;10.48;;;4.30;99.90;;;;;;5057031;28;20493;-77
2023/12/29 03:31:32;;;;;;;15.68;10.77;;;4.30;99.90;;;;;;5074733;28;20112;-77
2023/12/29 03:33:58;;;;;;;17.95;11.23;;;4.20;99.90;;;;;;5055633;28;20040;-77
2023/12/29 03:36:23;;;;;;;32.90;13.70;;;4.10;99.90;;;;;;5073924;28;20486;-77
2023/12/29 03:38:49;;;;;;;23.48;12.43;;;4.10;99.90;;;;;;5052474;28;20524;-77
2023/12/29 03:41:14;;;;;;;16.95;11.05;;;4.00;99.90;;;;;;5071213;28;20070;-77
2023/12/29 03:43:40;;;;;;;19.92;10.45;;;4.00;99.90;;;;;;5074005;28;20029;-77
2023/12/29 03:46:22;;;;;;;23.65;13.48;;;3.90;99.90;;;;;;5073767;28;20033;-76
2023/12/29 03:48:48;;;;;;;20.25;11.57;;;3.80;99.90;;;;;;5054892;28;20060;-75
2023/12/29 03:51:15;;;;;;;18.55;11.63;;;3.80;99.90;;;;;;5073172;28;20041;-75
2023/12/29 03:53:40;;;;;;;23.33;12.93;;;3.70;99.90;;;;;;5073658;28;20108;-76
2023/12/29 03:56:08;;;;;;;18.73;11.15;;;3.60;99.90;;;;;;5073525;28;20092;-75
2023/12/29 03:58:34;;;;;;;21.77;12.55;;;3.60;99.90;;;;;;5055665;28;20498;-75
2023/12/29 04:01:00;;;;;;;23.77;13.32;;;3.50;99.90;;;;;;5073687;28;20009;-76
2023/12/29 04:03:26;;;;;;;29.33;14.75;;;3.50;99.90;;;;;;5073614;28;20021;-77
2023/12/29 04:05:51;;;;;;;26.90;14.07;;;3.40;99.90;;;;;;5073575;28;20020;-75
2023/12/29 04:08:17;;;;;;;22.38;14.00;;;3.30;99.90;;;;;;5071974;28;20545;-77
2023/12/29 04:10:43;;;;;;;21.33;12.10;;;3.20;99.90;;;;;;5073490;28;20023;-75
2023/12/29 04:13:08;;;;;;;25.55;13.32;;;3.20;99.90;;;;;;5073365;28;20024;-77
2023/12/29 04:15:34;;;;;;;19.00;11.95;;;3.10;99.90;;;;;;5055474;28;20025;-76
2023/12/29 04:18:00;;;;;;;21.05;11.88;;;3.00;99.90;;;;;;5054968;28;20013;-77
2023/12/29 04:20:26;;;;;;;26.98;15.27;;;3.00;99.90;;;;;;5055552;28;20573;-76
2023/12/29 04:22:51;;;;;;;29.45;16.88;;;2.90;99.90;;;;;;5073011;28;20036;-75
2023/12/29 04:25:17;;;;;;;29.42;16.23;;;2.90;99.90;;;;;;5073096;28;20023;-75
2023/12/29 04:27:42;;;;;;;27.15;15.40;;;2.90;99.90;;;;;;5073055;28;20040;-77
2023/12/29 04:30:08;;;;;;;33.25;19.13;;;2.80;99.90;;;;;;5055458;28;20013;-76
2023/12/29 04:32:34;;;;;;;37.22;20.42;;;2.70;99.90;;;;;;5031640;28;1186036;-76
2023/12/29 04:35:00;;;;;;;32.13;19.15;;;2.70;99.90;;;;;;5056140;28;20022;-75
2023/12/29 04:37:25;;;;;;;32.70;18.08;;;2.70;99.90;;;;;;5073988;28;20029;-75
2023/12/29 04:39:51;;;;;;;31.75;18.15;;;2.60;99.90;;;;;;5074205;28;20021;-76
2023/12/29 04:42:18;;;;;;;36.50;20.05;;;2.60;99.90;;;;;;5055539;28;20028;-75
2023/12/29 04:44:44;;;;;;;39.15;20.08;;;2.60;99.90;;;;;;5073972;28;20112;-77
2023/12/29 04:47:09;;;;;;;40.53;19.58;;;2.60;99.90;;;;;;5055958;28;20029;-76
2023/12/29 04:49:35;;;;;;;41.17;20.58;;;2.60;99.90;;;;;;5073876;28;20406;-76
2023/12/29 04:52:01;;;;;;;41.10;21.00;;;2.50;99.90;;;;;;5055626;28;20390;-77
2023/12/29 04:54:27;;;;;;;43.75;20.67;;;2.50;99.90;;;;;;5056010;28;20028;-77
2023/12/29 04:56:53;;;;;;;39.13;19.92;;;2.50;99.90;;;;;;5055605;28;20048;-76
2023/12/29 04:59:19;;;;;;;37.10;20.42;;;2.40;99.90;;;;;;5073451;28;20085;-75
2023/12/29 05:01:44;;;;;;;37.35;18.67;;;2.30;99.90;;;;;;5054979;28;20086;-75
2023/12/29 05:04:10;;;;;;;32.08;17.88;;;2.30;99.90;;;;;;5055474;28;20024;-77
2023/12/29 05:06:36;;;;;;;30.63;17.75;;;2.30;99.90;;;;;;5059891;28;20027;-76
2023/12/29 05:09:02;;;;;;;37.85;18.52;;;2.30;99.90;;;;;;5073480;28;20019;-75
2023/12/29 05:11:28;;;;;;;34.05;17.60;;;2.20;99.90;;;;;;5073423;28;20035;-76
2023/12/29 05:13:53;;;;;;;28.98;15.90;;;2.20;99.90;;;;;;5055360;28;20005;-76
2023/12/29 05:16:19;;;;;;;29.90;17.15;;;2.20;99.90;;;;;;5073290;28;20482;-75
2023/12/29 05:18:44;;;;;;;21.73;13.45;;;2.20;99.90;;;;;;5055254;28;20027;-75
2023/12/29 05:21:17;;;;;;;27.92;16.48;;;2.30;99.90;;;;;;5055073;28;20017;-76
2023/12/29 05:23:47;;;;;;;32.50;15.38;;;2.20;99.90;;;;;;5055099;28;20089;-77
2023/12/29 05:26:14;;;;;;;31.25;17.40;;;2.20;99.90;;;;;;5072711;28;20482;-75
2023/12/29 05:28:39;;;;;;;38.85;19.35;;;2.20;99.90;;;;;;5055407;28;20066;-77
2023/12/29 05:31:05;;;;;;;34.85;20.00;;;2.30;99.90;;;;;;5072864;28;20055;-77
2023/12/29 05:33:32;;;;;;;33.17;19.95;;;2.30;99.90;;;;;;5073037;28;20060;-77
2023/12/29 05:35:58;;;;;;;35.95;21.20;;;2.30;99.90;;;;;;5072702;28;20035;-76
2023/12/29 05:38:24;;;;;;;35.70;21.38;;;2.40;99.90;;;;;;5054870;28;20016;-77
2023/12/29 05:40:50;;;;;;;25.80;17.38;;;2.40;99.90;;;;;;5054853;28;20020;-78
2023/12/29 05:43:16;;;;;;;32.25;18.27;;;2.50;99.90;;;;;;5054989;28;20028;-78
2023/12/29 05:45:42;;;;;;;21.67;12.43;;;2.50;99.90;;;;;;5054799;28;20023;-75
2023/12/29 05:48:08;;;;;;;17.15;10.07;;;2.60;99.90;;;;;;5055271;28;20099;-77
2023/12/29 05:50:34;;;;;;;17.27;9.68;;;2.60;99.90;;;;;;5072730;28;20021;-77
2023/12/29 05:52:59;;;;;;;13.98;9.38;;;2.90;99.90;;;;;;5072691;28;20082;-77
2023/12/29 05:55:25;;;;;;;13.98;8.05;;;3.10;99.90;;;;;;5072540;28;20052;-77
2023/12/29 05:57:51;;;;;;;10.90;7.13;;;3.30;99.90;;;;;;5072637;28;20020;-76
2023/12/29 06:00:17;;;;;;;13.95;7.03;;;3.50;99.90;;;;;;5054705;28;20020;-78
2023/12/29 06:02:43;;;;;;;12.13;7.15;;;3.70;99.90;;;;;;5054711;28;20032;-77
2023/12/29 06:05:10;;;;;;;11.38;6.93;;;3.90;99.90;;;;;;5072591;28;20012;-76
2023/12/29 06:07:36;;;;;;;12.07;7.38;;;4.10;99.90;;;;;;5054777;28;20078;-78
2023/12/29 06:10:02;;;;;;;8.25;5.60;;;4.30;99.90;;;;;;5054093;28;20025;-77
2023/12/29 06:12:28;;;;;;;10.48;6.03;;;4.50;99.90;;;;;;5072657;28;20032;-77
2023/12/29 06:14:53;;;;;;;10.13;7.07;;;4.70;99.90;;;;;;5054447;28;20024;-77
2023/12/29 06:17:19;;;;;;;10.25;6.40;;;4.80;99.90;;;;;;5072476;28;20506;-76
2023/12/29 06:19:45;;;;;;;8.13;5.15;;;4.90;99.90;;;;;;5072272;28;20427;-76
2023/12/29 06:22:11;;;;;;;8.82;5.75;;;5.00;99.90;;;;;;5072076;28;20062;-75
2023/12/29 06:24:40;;;;;;;8.80;5.35;;;5.10;99.90;;;;;;5071587;28;20024;-75
2023/12/29 06:27:08;;;;;;;8.32;5.22;;;5.30;99.90;;;;;;5070621;28;20432;-75
2023/12/29 06:29:34;;;;;;;10.10;5.55;;;5.30;99.90;;;;;;5053839;28;20508;-76
2023/12/29 06:32:00;;;;;;;9.20;5.50;;;5.30;99.90;;;;;;5051987;28;20037;-75
2023/12/29 06:34:26;;;;;;;9.18;5.07;;;5.40;99.90;;;;;;5071118;28;20025;-75
2023/12/29 06:36:52;;;;;;;8.15;5.35;;;5.40;99.90;;;;;;5054156;28;20478;-75
2023/12/29 06:39:17;;;;;;;7.93;4.55;;;5.50;99.90;;;;;;5070170;28;20537;-75
2023/12/29 06:41:43;;;;;;;7.07;5.00;;;5.50;99.90;;;;;;5068736;28;20154;-75
2023/12/29 06:44:09;;;;;;;9.25;5.38;;;5.60;99.90;;;;;;5070170;28;20036;-75
2023/12/29 06:46:37;;;;;;;8.25;5.20;;;5.60;99.90;;;;;;5070252;28;20618;-75
2023/12/29 06:49:03;;;;;;;7.78;4.72;;;5.70;99.90;;;;;;5069871;28;20426;-75
2023/12/29 06:51:28;;;;;;;9.07;5.07;;;5.70;99.90;;;;;;5069621;28;20059;-75
2023/12/29 06:53:54;;;;;;;9.88;5.18;;;5.70;99.90;;;;;;5069856;28;20111;-75
2023/12/29 06:56:20;;;;;;;10.95;5.03;;;5.80;99.90;;;;;;5071895;28;20092;-77
2023/12/29 06:58:46;;;;;;;6.15;4.53;;;5.80;99.90;;;;;;5070903;28;20025;-78
2023/12/29 07:01:12;;;;;;;6.18;5.00;;;5.80;99.90;;;;;;5051789;28;20016;-78
2023/12/29 07:03:38;;;;;;;6.80;5.10;;;5.90;99.90;;;;;;5051590;28;20068;-78
2023/12/29 07:06:04;;;;;;;11.90;7.10;;;6.00;99.90;;;;;;5070368;28;20028;-78
2023/12/29 07:08:29;;;;;;;17.08;8.50;;;6.00;99.90;;;;;;5070050;28;20029;-77
2023/12/29 07:10:55;;;;;;;22.30;9.43;;;6.00;99.90;;;;;;5070079;28;20545;-76
2023/12/29 07:13:21;;;;;;;16.85;8.80;;;6.00;99.90;;;;;;5051869;28;20043;-75
2023/12/29 07:15:47;;;;;;;10.93;5.85;;;6.10;99.90;;;;;;5053945;28;20366;-75
2023/12/29 07:18:14;;;;;;;7.47;5.07;;;6.10;99.90;;;;;;5071151;28;21245;-75
2023/12/29 07:20:39;;;;;;;6.65;4.50;;;6.10;99.90;;;;;;5056418;28;20028;-75
2023/12/29 07:23:05;;;;;;;7.72;5.35;;;6.20;99.90;;;;;;5070396;28;20094;-75
2023/12/29 07:25:31;;;;;;;6.97;4.65;;;6.30;99.90;;;;;;5071909;28;20024;-74
2023/12/29 07:27:57;;;;;;;6.25;4.10;;;6.40;99.90;;;;;;5056634;28;21373;-76
2023/12/29 07:30:22;;;;;;;5.35;4.20;;;6.50;99.90;;;;;;5074962;28;20020;-75
2023/12/29 07:32:48;;;;;;;6.82;3.80;;;6.50;99.90;;;;;;5073950;28;20163;-75
2023/12/29 07:35:17;;;;;;;12.93;4.53;;;6.60;99.90;;;;;;5075029;28;20021;-74
2023/12/29 07:37:43;;;;;;;8.60;5.35;;;6.60;99.90;;;;;;5073840;28;20032;-76
2023/12/29 07:40:14;;;;;;;10.38;6.00;;;6.70;99.90;;;;;;5054759;28;20020;-75
2023/12/29 07:42:40;;;;;;;8.98;4.97;;;6.70;99.90;;;;;;5073344;28;20371;-76
2023/12/29 07:45:07;;;;;;;7.75;4.50;;;6.80;99.90;;;;;;5054930;28;20016;-77
2023/12/29 07:47:32;;;;;;;7.90;4.82;;;6.80;99.90;;;;;;5074529;28;20028;-77
2023/12/29 07:49:58;;;;;;;7.80;4.57;;;6.80;99.90;;;;;;5045540;28;20037;-77
2023/12/29 07:52:23;;;;;;;7.00;4.25;;;6.90;99.90;;;;;;5072251;28;20027;-77
2023/12/29 07:54:49;;;;;;;9.07;5.07;;;6.90;99.90;;;;;;5067900;28;20131;-78
2023/12/29 07:57:15;;;;;;;7.65;5.03;;;6.90;99.90;;;;;;5078927;28;20497;-78
2023/12/29 07:59:41;;;;;;;8.98;5.63;;;6.90;99.90;;;;;;5075699;28;20033;-76
2023/12/29 08:02:07;;;;;;;7.35;4.70;;;6.90;99.90;;;;;;5052961;28;20033;-76
2023/12/29 08:04:32;;;;;;;7.50;4.97;;;7.00;99.90;;;;;;5061844;28;20061;-75
2023/12/29 08:06:58;;;;;;;8.52;5.10;;;7.00;99.90;;;;;;5061087;28;20066;-75
2023/12/29 08:09:25;;;;;;;8.82;5.93;;;7.00;99.90;;;;;;5071306;28;20536;-75
2023/12/29 08:11:51;;;;;;;8.40;5.20;;;7.00;99.90;;;;;;5061664;28;20388;-75
2023/12/29 08:14:17;;;;;;;8.32;5.13;;;7.00;99.90;;;;;;5083999;28;20029;-75
2023/12/29 08:16:43;;;;;;;11.23;6.45;;;7.10;99.90;;;;;;5072994;28;20462;-78
2023/12/29 08:19:09;;;;;;;14.60;7.57;;;7.10;99.90;;;;;;5062307;28;20032;-77
2023/12/29 08:21:36;;;;;;;19.27;9.65;;;7.10;99.90;;;;;;5071527;28;20029;-78
2023/12/29 08:24:02;;;;;;;13.05;6.57;;;7.20;99.90;;;;;;5082991;28;20043;-78
2023/12/29 08:26:29;;;;;;;15.13;7.88;;;7.20;99.90;;;;;;5073030;28;20035;-76
2023/12/29 08:28:54;;;;;;;11.38;5.50;;;7.30;99.90;;;;;;5086140;28;20505;-78
2023/12/29 08:31:22;;;;;;;10.00;5.65;;;7.30;99.90;;;;;;5073917;28;20028;-78
2023/12/29 08:33:47;;;;;;;8.52;5.07;;;7.40;99.90;;;;;;5069594;28;20132;-78
2023/12/29 08:36:13;;;;;;;7.93;5.05;;;7.40;99.90;;;;;;5066449;28;20091;-78
2023/12/29 08:38:39;;;;;;;7.88;5.20;;;7.40;99.90;;;;;;5058718;28;20055;-78
2023/12/29 08:41:05;;;;;;;6.90;4.80;;;7.40;99.90;;;;;;5033272;28;20447;-78
2023/12/29 08:43:31;;;;;;;13.98;4.88;;;7.50;99.90;;;;;;5039792;28;20130;-78
2023/12/29 08:45:56;;;;;;;7.38;4.75;;;7.50;99.90;;;;;;5053968;28;20017;-78
2023/12/29 08:48:23;;;;;;;7.68;4.90;;;7.50;99.90;;;;;;5058716;28;20031;-78
2023/12/29 08:50:49;;;;;;;7.25;4.75;;;7.60;99.90;;;;;;5055436;28;20045;-78
2023/12/29 08:53:15;;;;;;;6.53;4.07;;;7.60;99.90;;;;;;5067590;28;20418;-78
2023/12/29 08:55:42;;;;;;;8.63;5.03;;;7.70;99.90;;;;;;5052266;28;20033;-78
2023/12/29 08:58:08;;;;;;;5.60;4.07;;;7.70;99.90;;;;;;5067400;28;20024;-78
2023/12/29 09:00:33;;;;;;;7.05;4.05;;;7.80;99.90;;;;;;5058348;28;20099;-78
2023/12/29 09:02:59;;;;;;;5.55;3.85;;;7.90;99.90;;;;;;5065030;28;20421;-78
2023/12/29 09:05:25;;;;;;;5.78;4.13;;;7.90;99.90;;;;;;5055122;28;20103;-78
2023/12/29 09:07:51;;;;;;;7.78;4.68;;;8.00;99.90;;;;;;5062988;28;20449;-79
2023/12/29 09:10:16;;;;;;;6.30;3.90;;;8.10;99.90;;;;;;5056987;28;20035;-77
2023/12/29 09:12:42;;;;;;;5.45;4.13;;;8.20;99.90;;;;;;5053258;28;20056;-78
2023/12/29 09:15:08;;;;;;;6.88;4.35;;;8.20;99.90;;;;;;5052527;28;20449;-78
2023/12/29 09:17:34;;;;;;;5.43;3.80;;;8.30;99.90;;;;;;5030118;28;20040;-78
2023/12/29 09:20:00;;;;;;;7.90;4.45;;;8.30;99.90;;;;;;5056253;28;20082;-78
2023/12/29 09:22:26;;;;;;;4.72;3.63;;;8.30;99.90;;;;;;5055500;28;20036;-78
2023/12/29 09:24:52;;;;;;;6.75;4.53;;;8.30;99.90;;;;;;5066091;28;20031;-78
2023/12/29 09:27:18;;;;;;;6.43;4.63;;;8.30;99.90;;;;;;5052076;28;20019;-78
2023/12/29 09:29:43;;;;;;;8.23;4.65;;;8.30;99.90;;;;;;5063785;28;20028;-78
2023/12/29 09:32:09;;;;;;;7.18;4.20;;;8.30;99.90;;;;;;5055384;28;20052;-78
2023/12/29 09:34:35;;;;;;;8.73;3.78;;;8.30;99.90;;;;;;5079159;28;20045;-78
2023/12/29 09:37:00;;;;;;;4.78;3.70;;;8.30;99.90;;;;;;5084809;28;20422;-77
2023/12/29 09:39:26;;;;;;;7.68;4.18;;;8.30;99.90;;;;;;5056028;28;20029;-76
2023/12/29 09:41:55;;;;;;;5.18;4.20;;;8.40;99.90;;;;;;5072249;28;20540;-77
2023/12/29 09:44:21;;;;;;;4.88;3.55;;;8.40;99.90;;;;;;5071161;28;20025;-78
2023/12/29 09:46:53;;;;;;;5.93;3.70;;;8.50;99.90;;;;;;5054250;28;20078;-76
2023/12/29 09:49:20;;;;;;;7.00;3.97;;;8.60;99.90;;;;;;5071719;28;20044;-76
2023/12/29 09:51:46;;;;;;;6.75;3.63;;;8.70;99.50;;;;;;5054738;28;20042;-78
2023/12/29 09:54:13;;;;;;;7.18;4.30;;;8.70;99.90;;;;;;5072806;28;20481;-78
2023/12/29 09:56:39;;;;;;;5.28;3.70;;;8.80;99.90;;;;;;5054881;28;20016;-77
2023/12/29 09:59:06;;;;;;;6.50;3.38;;;8.80;98.80;;;;;;5072410;28;20414;-78
2023/12/29 10:01:33;;;;;;;5.05;3.35;;;8.80;99.30;;;;;;5071599;28;20086;-76
2023/12/29 10:03:59;;;;;;;5.85;3.42;;;8.80;98.60;;;;;;5070742;28;20055;-78
2023/12/29 10:06:25;;;;;;;6.18;3.40;;;8.80;98.40;;;;;;5070976;28;20607;-77
2023/12/29 10:08:52;;;;;;;7.55;3.78;;;8.90;98.60;;;;;;5070514;28;20013;-76
2023/12/29 10:11:21;;;;;;;5.65;3.85;;;8.90;97.00;;;;;;5070972;28;20394;-76
2023/12/29 10:13:51;;;;;;;5.40;3.45;;;8.90;96.40;;;;;;5070832;28;20496;-76
2023/12/29 10:16:38;;;;;;;6.28;3.35;;;9.00;97.00;;;;;;5053430;28;20052;-76
2023/12/29 10:19:21;;;;;;;7.93;4.20;;;9.00;96.20;;;;;;5061833;28;20024;-78
2023/12/29 10:22:03;;;;;;;7.18;4.10;;;9.10;95.30;;;;;;5072109;28;20033;-77
2023/12/29 10:24:29;;;;;;;7.82;4.50;;;9.10;94.00;;;;;;5072451;28;20024;-76
2023/12/29 10:26:55;;;;;;;5.95;3.50;;;9.20;93.00;;;;;;5072598;28;20024;-78
2023/12/29 10:29:21;;;;;;;5.65;3.60;;;9.20;92.50;;;;;;5072409;28;20021;-78
2023/12/29 10:31:47;;;;;;;6.78;3.42;;;9.20;91.30;;;;;;5072441;28;20048;-78
2023/12/29 10:34:28;;;;;;;6.65;4.13;;;9.20;90.80;;;;;;5054377;28;20478;-76
2023/12/29 10:37:03;;;;;;;9.68;4.88;;;9.30;91.40;;;;;;5071790;28;20029;-75
2023/12/29 10:39:29;;;;;;;20.35;14.35;;;9.30;91.10;;;;;;5053464;28;20039;-76
2023/12/29 10:42:08;;;;;;;6.00;4.30;;;9.30;91.80;;;;;;5053685;28;20033;-79
2023/12/29 10:44:35;;;;;;;8.02;4.93;;;9.20;91.20;;;;;;5071695;28;20021;-78
2023/12/29 10:47:09;;;;;;;6.32;3.22;;;9.20;90.80;;;;;;5070082;28;20031;-80
2023/12/29 10:49:35;;;;;;;8.80;4.68;;;9.20;90.70;;;;;;5053590;28;20033;-80
2023/12/29 10:52:16;;;;;;;7.30;5.82;;;9.20;91.10;;;;;;5071148;28;20032;-81
2023/12/29 10:54:43;;;;;;;6.95;6.05;;;9.20;92.10;;;;;;5071063;28;20025;-76
2023/12/29 10:57:11;;;;;;;8.80;6.72;;;9.20;92.30;;;;;;5053009;28;20024;-79
2023/12/29 10:59:37;;;;;;;10.35;6.47;;;9.30;92.50;;;;;;5071409;28;20025;-78
2023/12/29 11:02:03;;;;;;;7.78;5.30;;;9.20;93.70;;;;;;5073713;28;20548;-78
2023/12/29 11:04:29;;;;;;;5.10;4.50;;;9.20;91.80;;;;;;5075150;28;20142;-78
2023/12/29 11:06:55;;;;;;;7.50;6.65;;;9.20;92.50;;;;;;5075039;28;20095;-78
2023/12/29 11:09:31;;;;;;;5.82;4.55;;;9.20;92.50;;;;;;5075213;28;20028;-78
2023/12/29 11:12:03;;;;;;;4.90;4.00;;;9.20;92.40;;;;;;5075019;28;20146;-76
2023/12/29 11:14:29;;;;;;;5.90;4.25;;;9.20;92.60;;;;;;5057092;28;20008;-76
2023/12/29 11:16:56;;;;;;;5.53;3.83;;;9.20;93.30;;;;;;5075161;28;20032;-76
2023/12/29 11:19:22;;;;;;;11.15;6.93;;;9.20;92.50;;;;;;5056734;28;20032;-75
2023/12/29 11:21:53;;;;;;;20.27;9.75;;;9.20;92.90;;;;;;5056953;28;20051;-76
2023/12/29 11:24:19;;;;;;;7.93;5.63;;;9.20;93.90;;;;;;5075073;28;20060;-76
2023/12/29 11:26:45;;;;;;;7.25;4.70;;;9.20;93.90;;;;;;5056640;28;20093;-77
2023/12/29 11:29:11;;;;;;;6.28;4.20;;;9.20;93.30;;;;;;5074463;28;20423;-75
2023/12/29 11:31:40;;;;;;;26.40;10.73;;;9.20;92.10;;;;;;5056349;28;20052;-76
2023/12/29 11:34:31;;;;;;;9.73;5.63;;;9.20;93.60;;;;;;5074694;28;20048;-75
2023/12/29 11:37:18;;;;;;;6.95;5.45;;;9.20;91.60;;;;;;5070568;28;20013;-76
2023/12/29 11:39:53;;;;;;;5.40;3.65;;;9.20;92.00;;;;;;5073060;28;20055;-76
2023/12/29 11:42:30;;;;;;;11.65;5.43;;;9.30;91.20;;;;;;5074376;28;20029;-75
2023/12/29 11:44:56;;;;;;;10.55;5.82;;;9.30;91.20;;;;;;5074709;28;20106;-76
2023/12/29 11:47:38;;;;;;;13.57;8.68;;;9.30;90.80;;;;;;5074255;28;20063;-76
2023/12/29 11:50:05;;;;;;;6.53;5.38;;;9.30;90.60;;;;;;5056627;28;20020;-75
2023/12/29 11:52:34;;;;;;;19.83;7.90;;;9.40;91.90;;;;;;5057104;28;20024;-75
2023/12/29 11:55:17;;;;;;;31.98;12.05;;;9.40;90.00;;;;;;5055924;28;20652;-76
2023/12/29 11:57:44;;;;;;;27.60;11.25;;;9.40;90.80;;;;;;5070724;28;20462;-76
2023/12/29 12:00:10;;;;;;;32.00;17.40;;;9.40;90.10;;;;;;5055760;28;20032;-76
2023/12/29 12:02:36;;;;;;;7.35;4.55;;;9.40;90.50;;;;;;5055738;28;20052;-76
2023/12/29 12:05:02;;;;;;;14.38;7.18;;;9.40;89.50;;;;;;5074544;28;20493;-76
2023/12/29 12:07:28;;;;;;;22.35;8.88;;;9.40;89.30;;;;;;5074422;28;20028;-76
2023/12/29 12:10:38;;;;;;;21.35;8.48;;;9.40;89.20;;;;;;5074795;28;20186;-76
2023/12/29 12:13:04;;;;;;;13.90;8.55;;;9.30;89.60;;;;;;5063312;28;20024;-76
2023/12/29 12:15:29;;;;;;;21.27;12.32;;;9.40;88.50;;;;;;5074464;28;20025;-76
2023/12/29 12:17:56;;;;;;;37.45;15.77;;;9.40;89.60;;;;;;5074064;28;20161;-76
2023/12/29 12:20:22;;;;;;;26.80;11.63;;;9.30;90.00;;;;;;5074825;28;20028;-76
2023/12/29 12:22:59;;;;;;;31.65;16.30;;;9.30;88.90;;;;;;5074096;28;20093;-76
2023/12/29 12:25:30;;;;;;;43.38;20.48;;;9.30;89.90;;;;;;5056655;28;20027;-77
2023/12/29 12:27:56;;;;;;;71.60;27.40;;;9.30;89.50;;;;;;5073847;28;20046;-76
2023/12/29 12:30:22;;;;;;;87.60;32.50;;;9.40;90.70;;;;;;5074461;28;20489;-79
2023/12/29 12:32:59;;;;;;;38.25;22.73;;;9.30;90.50;;;;;;5074004;28;20076;-76
2023/12/29 12:35:27;;;;;;;53.10;20.92;;;9.30;90.20;;;;;;5074390;28;20032;-79
2023/12/29 12:38:13;;;;;;;77.95;28.30;;;9.30;90.20;;;;;;5073989;28;20109;-76
2023/12/29 12:40:39;;;;;;;55.22;20.02;;;9.20;90.10;;;;;;5066216;28;20023;-78
2023/12/29 12:43:06;;;;;;;34.50;20.02;;;9.20;90.60;;;;;;5056131;28;20029;-79
2023/12/29 12:45:42;;;;;;;54.83;19.77;;;9.20;90.80;;;;;;5053859;28;20071;-76